Time;durP1;ratioP1;P1;durP2;ratioP2;P2;SDS_P1;SDS_P2;PMS_P1;PMS_P2;Temp;Humidity;BMP_temperature;BMP_pressure;BME280_temperature;BME280_humidity;BME280_pressure;Samples;Min_cycle;Max_cycle;Signal;HPM_P1;HPM_P2
2022/04/14 04:01:37;;;;;;;12.90;8.07;;;11.70;99.90;;;;;;5398622;23;20224;-70
2022/04/14 04:04:04;;;;;;;15.98;7.95;;;11.70;99.90;;;;;;4952633;28;20210;-70
2022/04/14 04:06:30;;;;;;;17.25;7.22;;;11.70;99.90;;;;;;4967065;28;20210;-69
2022/04/14 04:08:57;;;;;;;13.80;8.23;;;11.70;99.90;;;;;;4958137;28;20196;-70
2022/04/14 04:11:24;;;;;;;16.65;8.95;;;11.70;99.90;;;;;;4973173;28;20228;-70
2022/04/14 04:13:50;;;;;;;16.73;9.00;;;11.60;99.90;;;;;;4951185;28;20197;-69
2022/04/14 04:16:17;;;;;;;16.13;8.35;;;11.60;99.90;;;;;;4955731;28;20205;-68
2022/04/14 04:18:45;;;;;;;15.35;8.88;;;11.60;99.90;;;;;;4960309;28;20628;-69
2022/04/14 04:21:12;;;;;;;14.75;8.55;;;11.60;99.90;;;;;;4987310;23;20232;-70
2022/04/14 04:23:38;;;;;;;17.58;9.18;;;11.60;99.90;;;;;;4977389;28;20248;-71
2022/04/14 04:26:05;;;;;;;15.35;8.30;;;11.60;99.90;;;;;;4989331;28;20263;-70
2022/04/14 04:28:32;;;;;;;18.30;10.05;;;11.60;99.90;;;;;;4960443;28;20213;-70
2022/04/14 04:30:58;;;;;;;17.70;9.90;;;11.60;99.90;;;;;;4947052;28;20214;-71
2022/04/14 04:33:25;;;;;;;16.98;9.55;;;11.60;99.90;;;;;;4937365;29;20276;-70
2022/04/14 04:35:53;;;;;;;20.00;9.57;;;11.60;99.90;;;;;;4946411;29;20248;-70
2022/04/14 04:38:20;;;;;;;19.88;10.30;;;11.60;99.90;;;;;;4962779;28;20683;-70
2022/04/14 04:40:46;;;;;;;14.90;9.75;;;11.60;99.90;;;;;;4958477;28;20225;-70
2022/04/14 04:43:15;;;;;;;14.55;8.82;;;11.60;99.90;;;;;;4945616;28;20301;-70
2022/04/14 04:45:42;;;;;;;20.10;10.48;;;11.60;99.90;;;;;;4946928;28;20205;-70
2022/04/14 04:48:09;;;;;;;19.38;9.45;;;11.60;99.90;;;;;;4968004;28;20212;-70
2022/04/14 04:50:35;;;;;;;18.17;9.90;;;11.60;99.90;;;;;;4955325;28;20273;-70
2022/04/14 04:53:04;;;;;;;14.70;9.05;;;11.60;99.90;;;;;;4943376;28;20273;-69
2022/04/14 04:55:31;;;;;;;16.00;8.90;;;11.50;99.90;;;;;;4936557;29;20214;-70
2022/04/14 04:57:58;;;;;;;16.92;9.57;;;11.60;99.90;;;;;;4964509;28;20616;-70
2022/04/14 05:00:25;;;;;;;14.00;8.40;;;11.50;99.90;;;;;;4967931;28;20272;-70
2022/04/14 05:02:51;;;;;;;20.88;9.00;;;11.50;99.90;;;;;;4945039;28;20225;-70
2022/04/14 05:05:21;;;;;;;15.73;8.98;;;11.60;99.90;;;;;;4958309;28;20220;-70
2022/04/14 05:07:48;;;;;;;13.80;7.70;;;11.60;99.90;;;;;;4955217;28;20674;-70
2022/04/14 05:10:16;;;;;;;15.27;9.05;;;11.60;99.90;;;;;;4953870;28;20714;-70
2022/04/14 05:12:43;;;;;;;14.40;8.40;;;11.60;99.90;;;;;;4937127;29;20198;-70
2022/04/14 05:15:10;;;;;;;15.70;9.05;;;11.60;99.90;;;;;;4956198;28;20263;-70
2022/04/14 05:17:37;;;;;;;17.88;9.07;;;11.60;99.90;;;;;;4974529;28;20732;-70
2022/04/14 05:20:04;;;;;;;13.13;8.40;;;11.60;99.90;;;;;;4950088;28;20229;-70
2022/04/14 05:22:31;;;;;;;19.45;8.88;;;11.60;99.90;;;;;;4935931;29;20230;-70
2022/04/14 05:24:58;;;;;;;20.92;9.15;;;11.60;99.90;;;;;;4959353;28;20677;-70
2022/04/14 05:27:26;;;;;;;14.82;9.10;;;11.60;99.90;;;;;;4965387;28;20231;-69
2022/04/14 05:29:52;;;;;;;15.15;9.20;;;11.70;99.90;;;;;;4961003;28;20717;-70
2022/04/14 05:32:19;;;;;;;15.45;8.75;;;11.70;99.90;;;;;;4952679;28;20206;-70
2022/04/14 05:34:46;;;;;;;17.27;8.70;;;11.70;99.90;;;;;;4955705;28;20213;-70
2022/04/14 05:37:12;;;;;;;16.38;9.73;;;11.70;99.90;;;;;;4964271;28;20209;-70
2022/04/14 05:39:39;;;;;;;16.60;10.40;;;11.70;99.90;;;;;;4948966;28;20663;-70
2022/04/14 05:42:06;;;;;;;16.35;9.93;;;11.80;99.90;;;;;;4954888;28;20228;-69
2022/04/14 05:44:34;;;;;;;20.17;9.48;;;11.80;99.90;;;;;;4938951;28;20272;-70
2022/04/14 05:47:01;;;;;;;20.17;10.60;;;11.80;99.90;;;;;;4936180;28;20214;-70
2022/04/14 05:49:27;;;;;;;14.90;9.43;;;11.90;99.90;;;;;;4947924;28;20590;-69
2022/04/14 05:51:54;;;;;;;11.70;8.87;;;12.00;99.90;;;;;;4962322;28;20841;-69
2022/04/14 05:54:21;;;;;;;20.80;11.10;;;12.00;99.90;;;;;;4958564;28;20871;-69
2022/04/14 05:56:47;;;;;;;13.80;9.83;;;12.10;99.90;;;;;;4953761;28;20469;-69
2022/04/14 05:59:16;;;;;;;16.73;9.50;;;12.10;99.90;;;;;;4945599;28;20961;-69
2022/04/14 06:01:44;;;;;;;22.43;10.30;;;12.10;99.90;;;;;;4955704;28;20596;-69
2022/04/14 06:04:11;;;;;;;21.30;10.80;;;12.20;99.90;;;;;;4954756;28;20614;-69
2022/04/14 06:06:38;;;;;;;16.33;9.80;;;12.10;99.90;;;;;;4961788;28;20556;-69
2022/04/14 06:09:05;;;;;;;21.23;13.27;;;12.20;99.90;;;;;;4961696;28;20810;-69
2022/04/14 06:11:31;;;;;;;20.63;12.50;;;12.20;99.90;;;;;;4972318;28;20487;-70
2022/04/14 06:13:58;;;;;;;17.47;12.33;;;12.20;99.90;;;;;;4957293;28;20538;-70
2022/04/14 06:16:25;;;;;;;22.47;12.43;;;12.20;99.90;;;;;;4953163;28;20840;-70
2022/04/14 06:18:53;;;;;;;17.93;12.20;;;12.20;99.90;;;;;;4946349;28;21156;-69
2022/04/14 06:21:19;;;;;;;23.03;14.03;;;12.20;99.90;;;;;;4933758;29;21032;-70
2022/04/14 06:23:46;;;;;;;21.17;13.50;;;12.20;99.90;;;;;;4946035;28;21000;-70
2022/04/14 06:26:13;;;;;;;24.85;15.65;;;12.30;99.90;;;;;;4950607;28;20523;-70
2022/04/14 06:28:42;;;;;;;23.70;14.63;;;12.30;99.90;;;;;;4952168;29;20530;-69
2022/04/14 06:31:08;;;;;;;25.00;14.37;;;12.30;99.90;;;;;;4952567;28;20489;-68
2022/04/14 06:33:35;;;;;;;27.10;13.70;;;12.40;99.90;;;;;;4948541;28;20462;-69
2022/04/14 06:36:03;;;;;;;22.97;12.83;;;12.40;99.90;;;;;;4936329;29;20553;-70
2022/04/14 06:38:30;;;;;;;21.93;14.57;;;12.30;99.90;;;;;;4934532;29;20465;-69
2022/04/14 06:40:56;;;;;;;22.20;14.70;;;12.30;99.90;;;;;;4934514;29;20846;-69
2022/04/14 06:43:24;;;;;;;22.87;14.47;;;12.40;99.90;;;;;;4934126;29;20537;-70
2022/04/14 06:45:51;;;;;;;23.07;15.67;;;12.40;99.90;;;;;;4939231;28;20820;-68
2022/04/14 06:48:18;;;;;;;26.17;16.03;;;12.40;99.90;;;;;;4948079;28;20476;-69
2022/04/14 06:50:45;;;;;;;27.83;15.60;;;12.50;99.90;;;;;;4946846;29;21056;-69
2022/04/14 06:53:13;;;;;;;25.37;15.97;;;12.60;99.90;;;;;;4953201;28;20472;-70
2022/04/14 06:55:42;;;;;;;28.30;15.43;;;12.60;99.90;;;;;;4951823;28;20535;-70
2022/04/14 06:58:10;;;;;;;25.73;15.47;;;12.60;99.90;;;;;;4952725;28;20986;-68
2022/04/14 07:00:37;;;;;;;25.67;15.53;;;12.60;99.90;;;;;;4940081;28;20488;-69
2022/04/14 07:03:04;;;;;;;27.70;17.00;;;12.70;99.90;;;;;;4943279;29;20543;-69
2022/04/14 07:05:31;;;;;;;26.27;17.07;;;12.70;99.90;;;;;;4942081;28;20527;-69
2022/04/14 07:07:57;;;;;;;28.10;17.27;;;12.70;99.90;;;;;;4944326;28;20812;-68
2022/04/14 07:10:27;;;;;;;29.27;16.33;;;12.70;99.90;;;;;;4936570;28;20550;-69
2022/04/14 07:12:55;;;;;;;31.60;17.73;;;12.80;99.90;;;;;;4946725;28;20969;-69
2022/04/14 07:15:22;;;;;;;26.10;17.00;;;12.80;99.90;;;;;;4952381;28;20469;-69
2022/04/14 07:17:49;;;;;;;26.20;15.67;;;12.80;99.90;;;;;;4946458;28;20503;-69
2022/04/14 07:20:16;;;;;;;31.13;18.33;;;12.90;99.90;;;;;;4941099;29;20568;-68
2022/04/14 07:22:43;;;;;;;28.13;17.73;;;12.90;99.90;;;;;;4953736;28;20519;-70
2022/04/14 07:25:10;;;;;;;26.37;16.27;;;13.00;99.90;;;;;;4947029;28;20492;-70
2022/04/14 07:27:38;;;;;;;28.00;18.37;;;13.00;99.90;;;;;;4964615;28;20957;-69
2022/04/14 07:30:06;;;;;;;28.40;16.63;;;13.10;99.90;;;;;;4950331;28;20547;-69
2022/04/14 07:32:35;;;;;;;25.63;15.40;;;13.20;99.90;;;;;;4954374;28;20958;-69
2022/04/14 07:35:03;;;;;;;26.80;16.00;;;13.20;99.90;;;;;;4960543;28;20480;-71
2022/04/14 07:37:30;;;;;;;26.23;16.50;;;13.20;99.90;;;;;;4954286;28;20985;-69
2022/04/14 07:39:57;;;;;;;27.40;15.93;;;13.20;99.90;;;;;;4932693;29;20466;-69
2022/04/14 07:42:31;;;;;;;22.87;16.37;;;13.40;99.90;;;;;;4952522;28;20468;-69
2022/04/14 07:44:59;;;;;;;26.90;16.03;;;13.40;99.90;;;;;;4948990;28;20587;-69
2022/04/14 07:47:26;;;;;;;21.47;16.27;;;13.50;99.90;;;;;;4967607;28;20953;-69
2022/04/14 07:49:53;;;;;;;21.70;15.07;;;13.60;99.90;;;;;;4936675;29;20517;-70
2022/04/14 07:52:19;;;;;;;26.27;15.87;;;13.80;99.90;;;;;;4946240;28;20469;-69
2022/04/14 07:54:46;;;;;;;27.73;16.10;;;13.80;99.90;;;;;;4953182;28;20465;-68
2022/04/14 07:57:13;;;;;;;20.40;15.70;;;13.80;99.90;;;;;;4944770;28;20496;-70
2022/04/14 07:59:40;;;;;;;24.80;16.07;;;13.80;99.90;;;;;;4937620;29;20523;-69
2022/04/14 08:02:08;;;;;;;23.80;16.33;;;13.80;99.90;;;;;;4951842;29;20488;-70
2022/04/14 08:04:35;;;;;;;19.90;15.17;;;13.80;99.90;;;;;;4950066;28;20487;-69
2022/04/14 08:07:02;;;;;;;23.30;16.07;;;13.90;99.90;;;;;;4942980;28;20509;-70
2022/04/14 08:09:28;;;;;;;26.73;17.10;;;13.90;99.90;;;;;;4951182;28;20468;-69
2022/04/14 08:11:55;;;;;;;25.37;15.93;;;13.90;99.90;;;;;;4954050;28;20488;-69
2022/04/14 08:14:22;;;;;;;20.30;16.70;;;13.80;99.90;;;;;;4955702;28;20564;-69
2022/04/14 08:16:48;;;;;;;23.20;16.47;;;13.90;99.90;;;;;;4955779;28;20523;-70
2022/04/14 08:19:16;;;;;;;23.80;17.70;;;13.90;99.90;;;;;;4952272;28;20553;-69
2022/04/14 08:21:43;;;;;;;27.10;18.20;;;14.00;99.90;;;;;;4935313;29;20493;-68
2022/04/14 08:24:09;;;;;;;25.83;17.73;;;14.00;99.90;;;;;;4952012;28;20492;-69
2022/04/14 08:26:36;;;;;;;20.87;16.63;;;14.00;99.90;;;;;;4947712;28;20525;-69
2022/04/14 08:29:03;;;;;;;24.90;18.87;;;14.00;99.90;;;;;;4937503;28;20469;-69
2022/04/14 08:31:30;;;;;;;23.27;17.73;;;14.00;99.90;;;;;;4952579;29;20567;-69
2022/04/14 08:33:56;;;;;;;22.27;16.43;;;14.10;99.90;;;;;;4940630;28;20459;-69
2022/04/14 08:36:25;;;;;;;25.40;18.10;;;14.10;99.90;;;;;;4941889;28;20540;-69
2022/04/14 08:38:53;;;;;;;22.43;18.90;;;14.20;99.90;;;;;;4955630;28;20515;-69
2022/04/14 08:41:22;;;;;;;23.17;17.77;;;14.30;99.90;;;;;;4954905;28;20524;-67
2022/04/14 08:43:52;;;;;;;18.90;16.60;;;14.40;99.90;;;;;;4944291;28;20493;-68
2022/04/14 08:46:20;;;;;;;20.67;18.20;;;14.50;99.90;;;;;;4952561;29;20589;-69
2022/04/14 08:48:51;;;;;;;21.07;17.27;;;14.70;99.90;;;;;;4955506;29;20469;-69
2022/04/14 08:51:19;;;;;;;20.37;17.63;;;14.80;99.90;;;;;;4954171;28;20484;-68
2022/04/14 08:53:48;;;;;;;19.97;17.93;;;14.80;99.90;;;;;;4939588;28;20469;-69
2022/04/14 08:56:15;;;;;;;19.93;17.33;;;14.80;99.90;;;;;;4950743;29;20472;-69
2022/04/14 08:58:43;;;;;;;17.93;15.83;;;14.80;99.90;;;;;;4953846;28;21024;-69
2022/04/14 09:01:13;;;;;;;21.00;17.67;;;14.80;99.90;;;;;;4953674;28;20555;-68
2022/04/14 09:03:41;;;;;;;18.90;16.40;;;14.80;99.90;;;;;;4955315;28;20848;-69
2022/04/14 09:06:08;;;;;;;25.10;17.70;;;14.80;99.90;;;;;;4943659;28;20858;-68
2022/04/14 09:08:34;;;;;;;18.57;16.57;;;14.90;99.90;;;;;;4959544;28;20554;-69
2022/04/14 09:11:03;;;;;;;22.00;18.23;;;14.90;99.90;;;;;;4945915;28;20501;-68
2022/04/14 09:13:31;;;;;;;20.40;18.30;;;15.00;99.90;;;;;;4949858;28;20520;-71
2022/04/14 09:15:58;;;;;;;22.23;18.83;;;15.10;99.90;;;;;;4958744;28;20472;-69
2022/04/14 09:18:26;;;;;;;20.73;16.60;;;15.10;99.90;;;;;;4963420;28;20464;-69
2022/04/14 09:21:03;;;;;;;22.60;16.67;;;15.20;99.90;;;;;;4960501;28;20575;-69
2022/04/14 09:23:30;;;;;;;18.40;16.40;;;15.20;99.90;;;;;;4955126;28;20460;-71
2022/04/14 09:26:14;;;;;;;22.67;18.67;;;15.30;99.90;;;;;;4951811;28;20467;-71
2022/04/14 09:28:42;;;;;;;22.90;19.70;;;15.40;99.90;;;;;;4945697;28;20487;-71
2022/04/14 09:31:10;;;;;;;23.30;18.60;;;15.40;99.90;;;;;;4949038;28;20901;-70
2022/04/14 09:33:44;;;;;;;23.80;19.67;;;15.50;99.90;;;;;;4943792;28;20460;-70
2022/04/14 09:36:15;;;;;;;22.80;19.00;;;15.60;99.90;;;;;;4951751;28;20463;-69
2022/04/14 09:38:57;;;;;;;21.77;18.30;;;15.80;99.90;;;;;;4948366;28;20532;-70
2022/04/14 09:41:37;;;;;;;22.10;19.10;;;15.80;99.90;;;;;;4941694;28;20894;-70
2022/04/14 09:44:06;;;;;;;23.80;18.30;;;15.70;99.90;;;;;;4949166;28;20489;-70
2022/04/14 09:46:32;;;;;;;26.13;20.20;;;15.80;99.90;;;;;;4946230;28;20468;-70
2022/04/14 09:49:10;;;;;;;26.87;21.97;;;15.90;99.90;;;;;;4936036;29;20465;-69
2022/04/14 09:51:38;;;;;;;27.47;21.77;;;16.00;99.90;;;;;;4953073;28;20484;-70
2022/04/14 09:54:12;;;;;;;25.17;20.37;;;15.90;99.90;;;;;;4954365;28;20547;-70
2022/04/14 09:56:48;;;;;;;21.83;19.53;;;15.90;99.90;;;;;;4961396;28;20547;-69
2022/04/14 09:59:16;;;;;;;28.70;21.20;;;16.00;99.90;;;;;;4952206;28;20472;-69
2022/04/14 10:01:44;;;;;;;25.30;21.43;;;16.00;99.90;;;;;;4951496;28;20488;-69
2022/04/14 10:04:32;;;;;;;24.87;19.87;;;15.90;99.90;;;;;;4937914;29;20481;-69
2022/04/14 10:07:10;;;;;;;22.47;18.77;;;16.00;99.90;;;;;;4934331;29;20457;-70
2022/04/14 10:09:39;;;;;;;21.30;18.70;;;16.00;99.90;;;;;;4935465;29;20468;-69
2022/04/14 10:12:28;;;;;;;23.80;19.13;;;16.10;99.90;;;;;;4951414;28;20517;-70
2022/04/14 10:15:01;;;;;;;22.73;20.27;;;16.10;99.90;;;;;;4943720;28;20461;-70
2022/04/14 10:17:30;;;;;;;25.90;21.47;;;16.10;99.90;;;;;;4947195;28;20468;-71
2022/04/14 10:19:57;;;;;;;23.13;20.27;;;16.30;99.90;;;;;;4947572;29;20461;-67
2022/04/14 10:22:24;;;;;;;17.90;15.87;;;16.30;99.90;;;;;;4951407;28;20461;-69
2022/04/14 10:24:53;;;;;;;18.77;16.97;;;16.30;99.90;;;;;;4956521;28;20485;-69
2022/04/14 10:27:22;;;;;;;18.50;16.50;;;16.30;99.90;;;;;;4970568;28;20546;-70
2022/04/14 10:29:49;;;;;;;17.07;15.37;;;16.30;99.90;;;;;;4949059;28;20539;-71
2022/04/14 10:32:16;;;;;;;16.90;15.17;;;16.40;99.90;;;;;;4950550;28;21042;-69
2022/04/14 10:34:44;;;;;;;15.67;14.03;;;16.50;99.90;;;;;;4947694;28;20473;-70
2022/04/14 10:37:17;;;;;;;15.87;13.53;;;16.60;99.90;;;;;;4949538;28;20907;-71
2022/04/14 10:39:48;;;;;;;15.63;14.03;;;16.60;99.90;;;;;;4934214;29;20465;-70
2022/04/14 10:42:19;;;;;;;15.33;13.73;;;16.60;99.90;;;;;;4955352;28;20469;-70
2022/04/14 10:44:48;;;;;;;14.73;13.50;;;16.70;99.90;;;;;;4954341;28;20551;-70
2022/04/14 10:47:34;;;;;;;12.90;11.57;;;16.80;99.90;;;;;;4961858;28;20485;-70
2022/04/14 10:50:01;;;;;;;12.60;11.30;;;16.80;99.90;;;;;;4954576;28;21036;-70
2022/04/14 10:52:28;;;;;;;12.93;11.67;;;16.80;99.90;;;;;;4938394;28;20465;-70
2022/04/14 10:54:56;;;;;;;11.30;10.40;;;17.00;99.90;;;;;;4954851;28;20457;-70
2022/04/14 10:57:36;;;;;;;12.27;11.07;;;17.10;99.90;;;;;;4955453;28;20501;-70
2022/04/14 11:00:33;;;;;;;13.23;11.90;;;17.20;99.90;;;;;;4954116;28;20471;-70
2022/04/14 11:03:04;;;;;;;12.20;11.00;;;17.10;99.90;;;;;;4935382;29;20454;-71
2022/04/14 11:05:39;;;;;;;16.67;12.60;;;17.10;99.90;;;;;;4935047;29;20544;-68
2022/04/14 11:08:22;;;;;;;13.47;12.10;;;17.10;99.90;;;;;;4948599;29;20472;-69
2022/04/14 11:11:10;;;;;;;13.60;12.40;;;17.20;99.90;;;;;;4942307;28;21194;-69
2022/04/14 11:14:06;;;;;;;13.57;12.20;;;17.40;99.90;;;;;;4937247;28;20467;-69
2022/04/14 11:16:46;;;;;;;13.60;12.37;;;17.60;99.90;;;;;;4957825;28;20463;-68
2022/04/14 11:19:26;;;;;;;14.33;12.83;;;17.70;99.90;;;;;;4937647;28;20970;-68
2022/04/14 11:22:14;;;;;;;12.93;11.80;;;17.70;99.90;;;;;;4932867;29;20495;-69
2022/04/14 11:24:42;;;;;;;13.27;12.00;;;17.50;99.90;;;;;;4948339;28;20905;-68
2022/04/14 11:27:10;;;;;;;12.37;11.17;;;17.40;99.90;;;;;;4947642;28;20544;-67
2022/04/14 11:29:37;;;;;;;11.87;10.70;;;17.30;99.90;;;;;;4951633;28;20468;-68
2022/04/14 11:32:05;;;;;;;13.17;11.87;;;17.40;99.90;;;;;;4948464;28;20856;-68
2022/04/14 11:34:32;;;;;;;12.30;11.20;;;17.60;99.90;;;;;;4963506;28;20896;-68
2022/04/14 11:37:01;;;;;;;12.23;11.23;;;17.80;99.90;;;;;;4949770;28;20470;-68
2022/04/14 11:39:29;;;;;;;11.80;10.83;;;18.00;99.90;;;;;;4941409;28;20476;-69
2022/04/14 11:42:03;;;;;;;12.30;11.03;;;18.10;99.90;;;;;;4953194;28;20572;-69
2022/04/14 11:44:32;;;;;;;12.30;11.17;;;18.20;99.90;;;;;;4941421;28;20529;-69
2022/04/14 11:47:00;;;;;;;11.77;9.87;;;18.20;99.90;;;;;;4952306;28;20495;-69
2022/04/14 11:49:30;;;;;;;10.20;9.50;;;18.20;99.90;;;;;;4937585;28;20477;-70
2022/04/14 11:51:59;;;;;;;9.00;8.30;;;18.00;99.90;;;;;;4955028;28;20828;-67
2022/04/14 11:54:35;;;;;;;11.07;9.97;;;17.90;99.90;;;;;;4955465;28;20471;-68
2022/04/14 11:57:06;;;;;;;10.87;9.97;;;17.70;99.90;;;;;;4951145;28;20468;-68
2022/04/14 11:59:35;;;;;;;9.43;8.60;;;17.60;99.90;;;;;;4943041;28;20465;-69
2022/04/14 12:02:03;;;;;;;10.10;9.30;;;17.60;99.90;;;;;;4941475;28;20547;-68
2022/04/14 12:04:36;;;;;;;9.50;8.70;;;17.60;99.90;;;;;;4956016;28;20492;-69
2022/04/14 12:07:04;;;;;;;10.30;9.50;;;17.50;99.90;;;;;;4957429;28;20460;-67
2022/04/14 12:09:31;;;;;;;12.53;9.33;;;17.40;99.90;;;;;;4959305;28;20471;-68
2022/04/14 12:12:08;;;;;;;11.67;10.67;;;17.40;99.90;;;;;;4964790;23;20508;-66
2022/04/14 12:14:34;;;;;;;13.33;9.90;;;17.30;99.90;;;;;;4963904;28;20479;-65
2022/04/14 12:17:01;;;;;;;10.43;9.53;;;17.10;99.90;;;;;;4955354;28;20469;-68
2022/04/14 12:19:42;;;;;;;9.63;8.87;;;17.00;99.90;;;;;;4963740;28;20503;-66
2022/04/14 12:22:09;;;;;;;9.40;8.60;;;16.90;99.90;;;;;;4946576;28;20515;-67
2022/04/14 12:24:35;;;;;;;9.37;8.63;;;16.90;99.90;;;;;;4958775;28;20481;-67
2022/04/14 12:27:02;;;;;;;8.47;7.70;;;16.80;99.90;;;;;;4952059;28;20520;-66
2022/04/14 12:29:29;;;;;;;8.90;8.30;;;16.90;99.90;;;;;;4952273;28;20535;-66
2022/04/14 12:31:58;;;;;;;9.33;8.43;;;16.90;99.90;;;;;;4955762;28;20477;-66
2022/04/14 12:34:25;;;;;;;11.43;8.47;;;17.00;99.90;;;;;;4953928;28;20465;-65
2022/04/14 12:37:07;;;;;;;8.80;8.00;;;17.00;99.90;;;;;;4955053;28;20582;-67
2022/04/14 12:39:34;;;;;;;8.03;7.43;;;17.00;99.90;;;;;;4955303;28;20567;-66
2022/04/14 12:42:01;;;;;;;8.70;8.00;;;17.00;99.90;;;;;;4955280;28;20496;-66
2022/04/14 12:44:28;;;;;;;7.80;7.10;;;16.90;99.90;;;;;;4955400;28;20496;-66
2022/04/14 12:46:55;;;;;;;8.67;7.87;;;16.90;99.90;;;;;;4959266;28;20509;-67
2022/04/14 12:49:32;;;;;;;7.77;7.17;;;16.90;99.90;;;;;;4955403;28;20471;-67
2022/04/14 12:52:03;;;;;;;9.00;7.40;;;16.80;99.90;;;;;;4955677;28;20520;-67
2022/04/14 12:54:30;;;;;;;8.60;7.90;;;16.80;99.90;;;;;;4955558;28;20531;-67
2022/04/14 12:56:59;;;;;;;7.23;6.63;;;16.70;99.90;;;;;;4954399;28;20621;-66
2022/04/14 12:59:26;;;;;;;7.80;7.20;;;16.70;99.90;;;;;;4954816;28;20540;-68
2022/04/14 13:01:54;;;;;;;7.90;7.20;;;16.80;99.90;;;;;;4954206;28;21013;-67
2022/04/14 13:04:31;;;;;;;6.83;6.37;;;16.80;99.90;;;;;;4955344;28;20820;-67
2022/04/14 13:07:01;;;;;;;7.93;7.23;;;16.80;99.90;;;;;;4945757;28;20465;-68
2022/04/14 13:09:28;;;;;;;7.67;7.00;;;16.90;99.90;;;;;;4936355;29;20832;-68
2022/04/14 13:11:55;;;;;;;7.10;6.60;;;16.90;99.90;;;;;;4938283;29;20511;-67
2022/04/14 13:14:24;;;;;;;7.07;6.57;;;17.00;99.90;;;;;;4971219;28;20468;-68
2022/04/14 13:16:52;;;;;;;7.23;6.83;;;17.10;99.90;;;;;;4964779;28;20488;-67
2022/04/14 13:19:19;;;;;;;9.80;8.40;;;17.20;99.90;;;;;;4955038;28;20834;-67
2022/04/14 13:21:46;;;;;;;7.97;7.40;;;17.20;99.90;;;;;;4953902;28;20488;-67
2022/04/14 13:24:15;;;;;;;7.53;7.03;;;17.20;99.90;;;;;;4954760;28;20477;-68
2022/04/14 13:26:42;;;;;;;7.77;7.17;;;17.20;99.90;;;;;;4953161;28;20464;-68
2022/04/14 13:29:10;;;;;;;8.70;8.10;;;17.10;99.90;;;;;;4954553;28;20471;-67
2022/04/14 13:31:37;;;;;;;7.17;6.77;;;17.00;99.90;;;;;;4951967;28;20514;-67
2022/04/14 13:34:04;;;;;;;7.63;6.90;;;17.00;99.90;;;;;;4954839;28;20468;-66
2022/04/14 13:36:31;;;;;;;8.50;7.70;;;17.00;99.90;;;;;;4948546;28;20492;-68
2022/04/14 13:38:58;;;;;;;8.33;7.30;;;17.00;99.90;;;;;;4935321;29;20469;-68
2022/04/14 13:41:26;;;;;;;8.13;7.43;;;17.00;99.90;;;;;;4934515;29;20493;-68
2022/04/14 13:43:53;;;;;;;8.87;7.60;;;16.90;99.90;;;;;;4935063;29;20564;-68
2022/04/14 13:46:20;;;;;;;9.53;8.73;;;16.80;99.90;;;;;;4937352;29;20957;-67
2022/04/14 13:48:46;;;;;;;9.53;8.83;;;16.70;99.90;;;;;;4946335;28;20466;-67
2022/04/14 13:51:13;;;;;;;12.13;9.43;;;16.70;99.90;;;;;;4948186;28;20547;-68
2022/04/14 13:53:40;;;;;;;10.30;9.07;;;16.60;99.90;;;;;;4961722;28;20487;-68
2022/04/14 13:56:07;;;;;;;9.63;8.77;;;16.60;99.90;;;;;;4953889;28;20489;-68
2022/04/14 13:58:35;;;;;;;9.60;8.80;;;16.60;99.90;;;;;;4953416;28;20882;-68
2022/04/14 14:01:02;;;;;;;9.03;8.23;;;16.60;99.90;;;;;;4951450;28;20549;-68
2022/04/14 14:03:29;;;;;;;9.33;8.53;;;16.70;99.90;;;;;;4950978;28;20520;-68
2022/04/14 14:05:57;;;;;;;10.07;8.17;;;16.80;99.90;;;;;;4949466;29;20818;-68
2022/04/14 14:08:24;;;;;;;9.10;8.40;;;16.90;99.90;;;;;;4952923;28;20460;-68
2022/04/14 14:10:51;;;;;;;10.03;9.10;;;17.10;99.90;;;;;;4952657;28;20465;-68
2022/04/14 14:13:18;;;;;;;9.00;8.30;;;17.20;99.90;;;;;;4960281;28;20476;-68
2022/04/14 14:15:47;;;;;;;8.67;7.87;;;17.20;99.90;;;;;;4946004;28;20574;-67
2022/04/14 14:18:14;;;;;;;9.97;9.00;;;17.30;99.90;;;;;;4956249;28;20606;-67
2022/04/14 14:20:40;;;;;;;10.63;9.63;;;17.40;99.90;;;;;;4943178;28;20496;-67
2022/04/14 14:23:07;;;;;;;10.53;9.63;;;17.40;99.90;;;;;;4968663;28;20575;-67
2022/04/14 14:25:36;;;;;;;9.57;8.67;;;17.30;99.90;;;;;;4950634;28;20472;-67
2022/04/14 14:28:03;;;;;;;9.27;8.47;;;17.40;99.90;;;;;;4953006;28;20918;-67
2022/04/14 14:30:30;;;;;;;7.87;7.33;;;17.40;99.90;;;;;;4952075;28;20469;-68
2022/04/14 14:32:58;;;;;;;8.93;8.30;;;17.50;99.90;;;;;;4956780;28;20489;-67
2022/04/14 14:35:27;;;;;;;9.53;8.63;;;17.50;99.90;;;;;;4950310;28;21001;-67
2022/04/14 14:37:53;;;;;;;7.90;7.07;;;17.50;99.90;;;;;;4952300;28;20528;-67
2022/04/14 14:40:22;;;;;;;9.17;7.60;;;17.50;99.90;;;;;;4952766;28;20450;-67
2022/04/14 14:42:49;;;;;;;6.90;6.33;;;17.50;99.90;;;;;;4950544;28;20499;-67
2022/04/14 14:45:15;;;;;;;7.60;7.00;;;17.40;99.90;;;;;;4961193;28;20514;-67
2022/04/14 14:47:42;;;;;;;8.00;7.40;;;17.30;99.90;;;;;;4950440;28;20464;-67
2022/04/14 14:50:11;;;;;;;7.30;6.60;;;17.30;99.90;;;;;;4962517;28;20468;-67
2022/04/14 14:52:37;;;;;;;8.73;7.93;;;17.10;99.90;;;;;;4951671;28;20489;-67
2022/04/14 14:55:05;;;;;;;7.23;6.73;;;17.00;99.90;;;;;;4952423;28;20504;-67
2022/04/14 15:00:13;;;;;;;6.80;6.20;;;16.90;99.90;;;;;;4922820;28;20457;-67
2022/04/14 15:02:40;;;;;;;7.77;7.03;;;16.90;99.90;;;;;;4955176;28;20484;-66
2022/04/14 15:05:09;;;;;;;8.33;7.63;;;17.00;99.90;;;;;;4950803;28;20520;-67
2022/04/14 15:07:36;;;;;;;8.10;7.30;;;17.10;99.90;;;;;;4958251;28;20944;-67
2022/04/14 15:10:04;;;;;;;7.93;7.23;;;17.10;99.90;;;;;;4950638;28;20936;-68
2022/04/14 15:12:31;;;;;;;7.87;7.07;;;17.20;99.90;;;;;;4961929;28;20523;-68
2022/04/14 15:14:58;;;;;;;7.77;7.00;;;17.20;99.90;;;;;;4950701;28;20468;-67
2022/04/14 15:17:25;;;;;;;5.97;5.67;;;17.20;99.90;;;;;;4961290;28;20484;-66
2022/04/14 15:19:52;;;;;;;7.73;7.23;;;17.10;99.90;;;;;;4962359;28;20473;-68
2022/04/14 15:22:20;;;;;;;7.40;6.83;;;17.00;99.90;;;;;;4947948;28;20871;-67
2022/04/14 15:24:46;;;;;;;7.87;7.27;;;16.80;99.90;;;;;;4952523;28;20500;-67
2022/04/14 15:27:13;;;;;;;8.40;7.70;;;16.70;99.90;;;;;;4946753;28;20473;-68
2022/04/14 15:29:41;;;;;;;9.03;8.07;;;16.70;99.90;;;;;;4954495;28;20483;-67
2022/04/14 15:32:08;;;;;;;8.57;7.80;;;16.70;99.90;;;;;;4952411;28;20507;-68
2022/04/14 15:34:35;;;;;;;14.63;9.27;;;16.70;99.90;;;;;;4946227;28;20472;-67
2022/04/14 15:37:01;;;;;;;10.03;9.13;;;16.60;99.90;;;;;;4952723;28;20902;-67
2022/04/14 15:39:29;;;;;;;9.83;8.93;;;16.50;99.90;;;;;;4960115;28;20463;-67
2022/04/14 15:41:56;;;;;;;11.47;10.47;;;16.50;99.90;;;;;;4954130;28;20484;-68
2022/04/14 15:44:23;;;;;;;11.27;10.17;;;16.50;99.90;;;;;;4951572;28;20468;-67
2022/04/14 15:46:49;;;;;;;10.83;9.80;;;16.50;99.90;;;;;;4960184;28;20464;-67
2022/04/14 15:49:16;;;;;;;10.70;9.60;;;16.50;99.90;;;;;;4958811;28;20476;-68
2022/04/14 15:51:43;;;;;;;11.77;10.63;;;16.50;99.90;;;;;;4963441;28;20546;-66
2022/04/14 15:54:09;;;;;;;12.00;10.70;;;16.50;99.90;;;;;;4953407;28;20507;-67
2022/04/14 15:56:37;;;;;;;11.83;10.63;;;16.50;99.90;;;;;;4966370;28;20480;-68
2022/04/14 15:59:04;;;;;;;13.50;11.00;;;16.50;99.90;;;;;;4952181;28;20527;-68
2022/04/14 16:01:31;;;;;;;12.83;11.47;;;16.40;99.90;;;;;;4949924;28;20511;-67
2022/04/14 16:03:58;;;;;;;12.97;11.77;;;16.40;99.90;;;;;;4947495;28;20512;-68
2022/04/14 16:06:24;;;;;;;14.63;11.70;;;16.30;99.90;;;;;;4953201;28;20469;-67
2022/04/14 16:08:51;;;;;;;16.37;13.47;;;16.30;99.90;;;;;;4960600;28;20456;-68
2022/04/14 16:14:03;;;;;;;16.53;12.10;;;16.20;99.90;;;;;;4959072;28;20436;-66
2022/04/14 16:16:30;;;;;;;18.97;15.30;;;16.10;99.90;;;;;;4955037;28;20512;-67
2022/04/14 16:18:57;;;;;;;15.23;13.67;;;16.10;99.90;;;;;;4967521;28;20913;-68
2022/04/14 16:21:24;;;;;;;19.50;13.60;;;16.00;99.90;;;;;;4964659;28;20489;-68
2022/04/14 16:23:50;;;;;;;12.90;11.33;;;15.90;99.90;;;;;;4956739;28;20514;-67
2022/04/14 16:26:17;;;;;;;16.83;12.57;;;15.80;99.90;;;;;;4954214;28;20965;-66
2022/04/14 16:28:44;;;;;;;13.43;10.87;;;15.70;99.90;;;;;;4955486;28;20930;-67
2022/04/14 16:31:12;;;;;;;16.37;11.73;;;15.60;99.90;;;;;;4946119;28;20962;-66
2022/04/14 16:33:39;;;;;;;17.17;12.57;;;15.60;99.90;;;;;;4951824;28;20479;-66
2022/04/14 16:36:06;;;;;;;16.67;12.77;;;15.60;99.90;;;;;;4958560;28;20487;-68
2022/04/14 16:38:33;;;;;;;16.77;12.20;;;15.60;99.90;;;;;;4950609;28;20576;-67
2022/04/14 16:41:00;;;;;;;16.53;11.97;;;15.50;99.90;;;;;;4957011;28;20483;-67
2022/04/14 16:43:27;;;;;;;18.70;13.50;;;15.50;99.90;;;;;;4955027;28;20460;-69
2022/04/14 16:45:54;;;;;;;26.03;14.93;;;15.50;99.90;;;;;;4950622;28;20464;-67